Terminal Aerodrome Forecast
Issued by NWS

Home | Current Version | Previous Version | Graphics & Text | Print | Product List | Glossary On
Versions: 1 2 3 4 5 6 7 8 9 10 11 12 13 14 15
985
FTUS43 KMPX 200714 AAA
TAFRNH
TAF AMD
KRNH 200714Z 2007/2106 22005KT P6SM SCT100
     FM200930 24005KT P6SM -SHRA BKN080
     FM201400 29007KT P6SM VCSH BKN090
     FM201500 32009KT P6SM SCT250=

USA.gov is the U.S. government's official web portal to all federal, state and local government web resources and services.